sensor_id;sensor_type;location;lat;lon;timestamp;P1;durP1;ratioP1;P2;durP2;ratioP2
61383;SDS011;63511;49.346;8.798;2022-12-18T00:01:52;83.63;;;34.10;;
61383;SDS011;63511;49.346;8.798;2022-12-18T00:04:22;85.20;;;30.83;;
61383;SDS011;63511;49.346;8.798;2022-12-18T00:06:49;69.43;;;28.38;;
61383;SDS011;63511;49.346;8.798;2022-12-18T00:09:14;55.53;;;25.90;;
61383;SDS011;63511;49.346;8.798;2022-12-18T00:11:40;64.80;;;25.17;;
61383;SDS011;63511;49.346;8.798;2022-12-18T00:14:05;61.20;;;25.23;;
61383;SDS011;63511;49.346;8.798;2022-12-18T00:16:31;63.45;;;25.38;;
61383;SDS011;63511;49.346;8.798;2022-12-18T00:19:00;69.07;;;25.48;;
61383;SDS011;63511;49.346;8.798;2022-12-18T00:21:26;65.25;;;27.15;;
61383;SDS011;63511;49.346;8.798;2022-12-18T00:23:55;62.72;;;27.30;;
61383;SDS011;63511;49.346;8.798;2022-12-18T00:26:24;59.92;;;25.42;;
61383;SDS011;63511;49.346;8.798;2022-12-18T00:28:51;59.45;;;26.77;;
61383;SDS011;63511;49.346;8.798;2022-12-18T00:31:18;69.60;;;25.13;;
61383;SDS011;63511;49.346;8.798;2022-12-18T00:33:49;72.78;;;28.52;;
61383;SDS011;63511;49.346;8.798;2022-12-18T00:36:16;68.93;;;27.05;;
61383;SDS011;63511;49.346;8.798;2022-12-18T00:38:43;56.75;;;26.33;;
61383;SDS011;63511;49.346;8.798;2022-12-18T00:41:12;66.07;;;24.80;;
61383;SDS011;63511;49.346;8.798;2022-12-18T00:44:01;69.97;;;29.50;;
61383;SDS011;63511;49.346;8.798;2022-12-18T00:46:27;69.60;;;27.95;;
61383;SDS011;63511;49.346;8.798;2022-12-18T00:48:53;67.82;;;27.27;;
61383;SDS011;63511;49.346;8.798;2022-12-18T00:51:25;56.40;;;22.25;;
61383;SDS011;63511;49.346;8.798;2022-12-18T00:53:51;47.45;;;20.95;;
61383;SDS011;63511;49.346;8.798;2022-12-18T00:56:17;47.60;;;20.50;;
61383;SDS011;63511;49.346;8.798;2022-12-18T00:58:42;59.13;;;23.08;;
61383;SDS011;63511;49.346;8.798;2022-12-18T01:01:08;48.72;;;20.58;;
61383;SDS011;63511;49.346;8.798;2022-12-18T01:03:33;49.80;;;21.35;;
61383;SDS011;63511;49.346;8.798;2022-12-18T01:06:04;56.38;;;22.98;;
61383;SDS011;63511;49.346;8.798;2022-12-18T01:08:30;51.85;;;21.92;;
61383;SDS011;63511;49.346;8.798;2022-12-18T01:10:56;57.88;;;24.17;;
61383;SDS011;63511;49.346;8.798;2022-12-18T01:13:21;56.47;;;22.40;;
61383;SDS011;63511;49.346;8.798;2022-12-18T01:15:50;51.08;;;20.58;;
61383;SDS011;63511;49.346;8.798;2022-12-18T01:18:16;56.45;;;22.95;;
61383;SDS011;63511;49.346;8.798;2022-12-18T01:20:43;58.30;;;23.92;;
61383;SDS011;63511;49.346;8.798;2022-12-18T01:23:09;61.03;;;24.40;;
61383;SDS011;63511;49.346;8.798;2022-12-18T01:25:37;59.20;;;23.58;;
61383;SDS011;63511;49.346;8.798;2022-12-18T01:28:03;57.03;;;24.52;;
61383;SDS011;63511;49.346;8.798;2022-12-18T01:30:28;51.38;;;22.70;;
61383;SDS011;63511;49.346;8.798;2022-12-18T01:32:56;47.90;;;21.60;;
61383;SDS011;63511;49.346;8.798;2022-12-18T01:35:21;53.53;;;21.55;;
61383;SDS011;63511;49.346;8.798;2022-12-18T01:37:46;48.08;;;20.98;;
61383;SDS011;63511;49.346;8.798;2022-12-18T01:40:12;43.10;;;18.85;;
61383;SDS011;63511;49.346;8.798;2022-12-18T01:42:40;44.35;;;19.58;;
61383;SDS011;63511;49.346;8.798;2022-12-18T01:50:05;40.40;;;17.38;;
61383;SDS011;63511;49.346;8.798;2022-12-18T01:55:09;36.40;;;16.55;;
61383;SDS011;63511;49.346;8.798;2022-12-18T01:57:38;39.70;;;17.85;;
61383;SDS011;63511;49.346;8.798;2022-12-18T02:00:06;48.30;;;18.20;;
61383;SDS011;63511;49.346;8.798;2022-12-18T02:02:35;47.78;;;20.70;;
61383;SDS011;63511;49.346;8.798;2022-12-18T02:05:00;66.68;;;24.30;;
61383;SDS011;63511;49.346;8.798;2022-12-18T02:07:32;59.40;;;21.73;;
61383;SDS011;63511;49.346;8.798;2022-12-18T02:12:45;45.40;;;16.65;;
61383;SDS011;63511;49.346;8.798;2022-12-18T02:24:01;37.83;;;17.48;;
61383;SDS011;63511;49.346;8.798;2022-12-18T02:26:38;46.78;;;17.75;;
61383;SDS011;63511;49.346;8.798;2022-12-18T02:31:40;38.60;;;15.88;;
61383;SDS011;63511;49.346;8.798;2022-12-18T02:34:10;40.08;;;16.58;;
61383;SDS011;63511;49.346;8.798;2022-12-18T02:36:42;43.30;;;18.20;;
61383;SDS011;63511;49.346;8.798;2022-12-18T02:39:10;34.17;;;16.77;;
61383;SDS011;63511;49.346;8.798;2022-12-18T02:41:38;37.47;;;16.45;;
61383;SDS011;63511;49.346;8.798;2022-12-18T02:44:07;40.22;;;16.33;;
61383;SDS011;63511;49.346;8.798;2022-12-18T02:51:59;33.85;;;13.82;;
61383;SDS011;63511;49.346;8.798;2022-12-18T02:54:41;34.50;;;15.48;;
61383;SDS011;63511;49.346;8.798;2022-12-18T03:05:17;45.72;;;17.05;;
61383;SDS011;63511;49.346;8.798;2022-12-18T03:07:52;45.80;;;17.15;;
61383;SDS011;63511;49.346;8.798;2022-12-18T03:10:25;40.33;;;15.85;;
61383;SDS011;63511;49.346;8.798;2022-12-18T03:13:03;39.65;;;16.65;;
61383;SDS011;63511;49.346;8.798;2022-12-18T03:15:34;40.00;;;16.23;;
61383;SDS011;63511;49.346;8.798;2022-12-18T03:18:03;42.25;;;16.58;;
61383;SDS011;63511;49.346;8.798;2022-12-18T03:20:34;36.10;;;16.30;;
61383;SDS011;63511;49.346;8.798;2022-12-18T03:23:11;40.28;;;15.40;;
61383;SDS011;63511;49.346;8.798;2022-12-18T03:25:41;34.80;;;15.98;;
61383;SDS011;63511;49.346;8.798;2022-12-18T03:28:13;32.55;;;16.23;;
61383;SDS011;63511;49.346;8.798;2022-12-18T03:30:41;48.70;;;18.33;;
61383;SDS011;63511;49.346;8.798;2022-12-18T03:35:49;38.70;;;15.77;;
61383;SDS011;63511;49.346;8.798;2022-12-18T03:38:17;36.00;;;15.35;;
61383;SDS011;63511;49.346;8.798;2022-12-18T03:43:19;38.47;;;15.85;;
61383;SDS011;63511;49.346;8.798;2022-12-18T03:45:59;39.50;;;16.00;;
61383;SDS011;63511;49.346;8.798;2022-12-18T03:48:34;37.83;;;14.95;;
61383;SDS011;63511;49.346;8.798;2022-12-18T03:51:10;38.80;;;15.75;;
61383;SDS011;63511;49.346;8.798;2022-12-18T03:56:40;40.65;;;14.70;;
61383;SDS011;63511;49.346;8.798;2022-12-18T03:59:10;43.75;;;17.38;;
61383;SDS011;63511;49.346;8.798;2022-12-18T04:01:42;40.42;;;16.60;;
61383;SDS011;63511;49.346;8.798;2022-12-18T04:06:37;39.38;;;15.50;;
61383;SDS011;63511;49.346;8.798;2022-12-18T04:09:04;39.88;;;15.70;;
61383;SDS011;63511;49.346;8.798;2022-12-18T04:11:30;40.70;;;16.52;;
61383;SDS011;63511;49.346;8.798;2022-12-18T04:13:58;43.78;;;17.50;;
61383;SDS011;63511;49.346;8.798;2022-12-18T04:16:24;37.28;;;16.65;;
61383;SDS011;63511;49.346;8.798;2022-12-18T04:18:52;39.25;;;15.10;;
61383;SDS011;63511;49.346;8.798;2022-12-18T04:21:21;46.47;;;16.27;;
61383;SDS011;63511;49.346;8.798;2022-12-18T04:23:47;35.42;;;15.80;;
61383;SDS011;63511;49.346;8.798;2022-12-18T04:26:12;40.65;;;14.98;;
61383;SDS011;63511;49.346;8.798;2022-12-18T04:28:38;40.05;;;16.52;;
61383;SDS011;63511;49.346;8.798;2022-12-18T04:31:03;26.95;;;13.07;;
61383;SDS011;63511;49.346;8.798;2022-12-18T04:33:31;39.28;;;15.30;;
61383;SDS011;63511;49.346;8.798;2022-12-18T04:35:57;41.97;;;15.98;;
61383;SDS011;63511;49.346;8.798;2022-12-18T04:38:24;35.83;;;16.23;;
61383;SDS011;63511;49.346;8.798;2022-12-18T04:40:52;42.13;;;16.63;;
61383;SDS011;63511;49.346;8.798;2022-12-18T04:43:19;39.72;;;15.80;;
61383;SDS011;63511;49.346;8.798;2022-12-18T04:45:45;41.58;;;15.98;;
61383;SDS011;63511;49.346;8.798;2022-12-18T04:48:10;41.80;;;16.02;;
61383;SDS011;63511;49.346;8.798;2022-12-18T04:50:37;32.67;;;15.15;;
61383;SDS011;63511;49.346;8.798;2022-12-18T04:53:02;45.92;;;17.02;;
61383;SDS011;63511;49.346;8.798;2022-12-18T04:55:27;38.20;;;16.42;;
61383;SDS011;63511;49.346;8.798;2022-12-18T04:57:53;38.33;;;15.48;;
61383;SDS011;63511;49.346;8.798;2022-12-18T05:00:18;50.70;;;16.77;;
61383;SDS011;63511;49.346;8.798;2022-12-18T05:02:46;46.33;;;16.73;;
61383;SDS011;63511;49.346;8.798;2022-12-18T05:05:16;43.13;;;16.48;;
61383;SDS011;63511;49.346;8.798;2022-12-18T05:07:44;35.38;;;15.75;;
61383;SDS011;63511;49.346;8.798;2022-12-18T05:10:11;42.03;;;16.38;;
61383;SDS011;63511;49.346;8.798;2022-12-18T05:12:37;39.83;;;15.73;;
61383;SDS011;63511;49.346;8.798;2022-12-18T05:15:22;33.70;;;15.07;;
61383;SDS011;63511;49.346;8.798;2022-12-18T05:17:47;33.13;;;14.45;;
61383;SDS011;63511;49.346;8.798;2022-12-18T05:20:15;44.70;;;15.57;;
61383;SDS011;63511;49.346;8.798;2022-12-18T05:22:43;40.95;;;15.52;;
61383;SDS011;63511;49.346;8.798;2022-12-18T05:25:09;38.58;;;16.40;;
61383;SDS011;63511;49.346;8.798;2022-12-18T05:27:36;41.67;;;15.93;;
61383;SDS011;63511;49.346;8.798;2022-12-18T05:30:04;37.05;;;15.45;;
61383;SDS011;63511;49.346;8.798;2022-12-18T05:32:31;45.10;;;15.38;;
61383;SDS011;63511;49.346;8.798;2022-12-18T05:34:59;36.28;;;14.88;;
61383;SDS011;63511;49.346;8.798;2022-12-18T05:37:25;37.60;;;15.52;;
61383;SDS011;63511;49.346;8.798;2022-12-18T05:39:50;36.97;;;15.20;;
61383;SDS011;63511;49.346;8.798;2022-12-18T05:42:15;39.17;;;16.33;;
61383;SDS011;63511;49.346;8.798;2022-12-18T05:44:41;42.42;;;16.55;;
61383;SDS011;63511;49.346;8.798;2022-12-18T05:47:06;41.67;;;15.27;;
61383;SDS011;63511;49.346;8.798;2022-12-18T05:49:34;38.67;;;16.85;;
61383;SDS011;63511;49.346;8.798;2022-12-18T05:51:59;35.55;;;15.90;;
61383;SDS011;63511;49.346;8.798;2022-12-18T05:54:30;35.58;;;15.40;;
61383;SDS011;63511;49.346;8.798;2022-12-18T05:56:55;42.60;;;16.15;;
61383;SDS011;63511;49.346;8.798;2022-12-18T05:59:21;38.80;;;16.08;;
61383;SDS011;63511;49.346;8.798;2022-12-18T06:01:47;46.47;;;17.33;;
61383;SDS011;63511;49.346;8.798;2022-12-18T06:04:12;47.55;;;18.25;;
61383;SDS011;63511;49.346;8.798;2022-12-18T06:06:37;48.90;;;19.15;;
61383;SDS011;63511;49.346;8.798;2022-12-18T06:09:03;43.50;;;19.38;;
61383;SDS011;63511;49.346;8.798;2022-12-18T06:11:34;43.47;;;17.67;;
61383;SDS011;63511;49.346;8.798;2022-12-18T06:14:03;43.13;;;19.02;;
61383;SDS011;63511;49.346;8.798;2022-12-18T06:16:30;45.75;;;18.67;;
61383;SDS011;63511;49.346;8.798;2022-12-18T06:18:59;50.15;;;19.80;;
61383;SDS011;63511;49.346;8.798;2022-12-18T06:21:28;63.65;;;22.48;;
61383;SDS011;63511;49.346;8.798;2022-12-18T06:23:56;49.67;;;19.95;;
61383;SDS011;63511;49.346;8.798;2022-12-18T06:26:22;44.70;;;18.52;;
61383;SDS011;63511;49.346;8.798;2022-12-18T06:28:47;48.55;;;19.27;;
61383;SDS011;63511;49.346;8.798;2022-12-18T06:31:12;50.75;;;19.45;;
61383;SDS011;63511;49.346;8.798;2022-12-18T06:33:38;51.58;;;19.98;;
61383;SDS011;63511;49.346;8.798;2022-12-18T06:36:07;48.60;;;19.10;;
61383;SDS011;63511;49.346;8.798;2022-12-18T06:38:37;44.88;;;17.10;;
61383;SDS011;63511;49.346;8.798;2022-12-18T06:41:16;59.80;;;20.23;;
61383;SDS011;63511;49.346;8.798;2022-12-18T06:43:43;44.80;;;19.65;;
61383;SDS011;63511;49.346;8.798;2022-12-18T06:46:11;52.88;;;21.17;;
61383;SDS011;63511;49.346;8.798;2022-12-18T06:48:37;50.00;;;22.35;;
61383;SDS011;63511;49.346;8.798;2022-12-18T06:51:03;45.78;;;19.63;;
61383;SDS011;63511;49.346;8.798;2022-12-18T06:53:29;53.15;;;21.65;;
61383;SDS011;63511;49.346;8.798;2022-12-18T06:56:02;44.83;;;18.42;;
61383;SDS011;63511;49.346;8.798;2022-12-18T06:58:28;48.33;;;20.48;;
61383;SDS011;63511;49.346;8.798;2022-12-18T07:00:58;50.60;;;20.90;;
61383;SDS011;63511;49.346;8.798;2022-12-18T07:03:25;48.45;;;19.27;;
61383;SDS011;63511;49.346;8.798;2022-12-18T07:05:55;54.35;;;20.60;;
61383;SDS011;63511;49.346;8.798;2022-12-18T07:08:22;63.25;;;24.98;;
61383;SDS011;63511;49.346;8.798;2022-12-18T07:10:48;52.13;;;23.15;;
61383;SDS011;63511;49.346;8.798;2022-12-18T07:13:16;48.33;;;20.73;;
61383;SDS011;63511;49.346;8.798;2022-12-18T07:15:42;59.65;;;21.67;;
61383;SDS011;63511;49.346;8.798;2022-12-18T07:18:08;60.30;;;23.77;;
61383;SDS011;63511;49.346;8.798;2022-12-18T07:20:38;59.63;;;22.92;;
61383;SDS011;63511;49.346;8.798;2022-12-18T07:23:06;61.10;;;24.55;;
61383;SDS011;63511;49.346;8.798;2022-12-18T07:25:35;70.30;;;23.65;;
61383;SDS011;63511;49.346;8.798;2022-12-18T07:28:01;59.50;;;25.48;;
61383;SDS011;63511;49.346;8.798;2022-12-18T07:30:29;62.20;;;24.90;;
61383;SDS011;63511;49.346;8.798;2022-12-18T07:32:54;65.55;;;24.55;;
61383;SDS011;63511;49.346;8.798;2022-12-18T07:35:20;55.60;;;22.83;;
61383;SDS011;63511;49.346;8.798;2022-12-18T07:37:50;59.22;;;24.33;;
61383;SDS011;63511;49.346;8.798;2022-12-18T07:40:15;64.25;;;23.52;;
61383;SDS011;63511;49.346;8.798;2022-12-18T07:42:40;68.07;;;26.35;;
61383;SDS011;63511;49.346;8.798;2022-12-18T07:45:06;61.53;;;25.33;;
61383;SDS011;63511;49.346;8.798;2022-12-18T07:47:34;63.58;;;25.42;;
61383;SDS011;63511;49.346;8.798;2022-12-18T07:50:01;62.67;;;25.92;;
61383;SDS011;63511;49.346;8.798;2022-12-18T07:52:27;78.18;;;28.77;;
61383;SDS011;63511;49.346;8.798;2022-12-18T07:54:58;63.42;;;26.02;;
61383;SDS011;63511;49.346;8.798;2022-12-18T07:57:23;61.20;;;25.23;;
61383;SDS011;63511;49.346;8.798;2022-12-18T07:59:51;64.55;;;25.17;;
61383;SDS011;63511;49.346;8.798;2022-12-18T08:02:18;60.33;;;25.77;;
61383;SDS011;63511;49.346;8.798;2022-12-18T08:04:43;64.03;;;26.52;;
61383;SDS011;63511;49.346;8.798;2022-12-18T08:07:09;67.03;;;26.45;;
61383;SDS011;63511;49.346;8.798;2022-12-18T08:09:37;72.28;;;28.58;;
61383;SDS011;63511;49.346;8.798;2022-12-18T08:12:02;73.97;;;27.95;;
61383;SDS011;63511;49.346;8.798;2022-12-18T08:14:27;83.47;;;31.92;;
61383;SDS011;63511;49.346;8.798;2022-12-18T08:16:55;81.72;;;33.55;;
61383;SDS011;63511;49.346;8.798;2022-12-18T08:19:23;82.60;;;33.03;;
61383;SDS011;63511;49.346;8.798;2022-12-18T08:21:48;84.78;;;32.10;;
61383;SDS011;63511;49.346;8.798;2022-12-18T08:24:14;85.60;;;32.50;;
61383;SDS011;63511;49.346;8.798;2022-12-18T08:26:39;67.20;;;30.52;;
61383;SDS011;63511;49.346;8.798;2022-12-18T08:29:08;97.10;;;32.88;;
61383;SDS011;63511;49.346;8.798;2022-12-18T08:31:33;76.82;;;29.67;;
61383;SDS011;63511;49.346;8.798;2022-12-18T08:33:59;89.70;;;34.60;;
61383;SDS011;63511;49.346;8.798;2022-12-18T08:36:29;85.18;;;31.48;;
61383;SDS011;63511;49.346;8.798;2022-12-18T08:38:57;78.68;;;32.40;;
61383;SDS011;63511;49.346;8.798;2022-12-18T08:41:22;73.45;;;30.48;;
61383;SDS011;63511;49.346;8.798;2022-12-18T08:43:48;81.28;;;30.70;;
61383;SDS011;63511;49.346;8.798;2022-12-18T08:46:33;89.57;;;31.10;;
61383;SDS011;63511;49.346;8.798;2022-12-18T08:49:02;87.25;;;32.55;;
61383;SDS011;63511;49.346;8.798;2022-12-18T08:51:28;80.05;;;31.10;;
61383;SDS011;63511;49.346;8.798;2022-12-18T08:53:56;77.75;;;30.50;;
61383;SDS011;63511;49.346;8.798;2022-12-18T08:58:53;80.50;;;33.50;;
61383;SDS011;63511;49.346;8.798;2022-12-18T09:01:19;68.25;;;30.13;;
61383;SDS011;63511;49.346;8.798;2022-12-18T09:03:50;82.25;;;30.35;;
61383;SDS011;63511;49.346;8.798;2022-12-18T09:06:16;82.35;;;31.85;;
61383;SDS011;63511;49.346;8.798;2022-12-18T09:08:45;79.72;;;32.03;;
61383;SDS011;63511;49.346;8.798;2022-12-18T09:11:24;79.45;;;30.52;;
61383;SDS011;63511;49.346;8.798;2022-12-18T09:13:51;72.90;;;30.77;;
61383;SDS011;63511;49.346;8.798;2022-12-18T09:16:20;86.28;;;32.65;;
61383;SDS011;63511;49.346;8.798;2022-12-18T09:18:46;77.18;;;31.83;;
61383;SDS011;63511;49.346;8.798;2022-12-18T09:21:13;77.20;;;30.95;;
61383;SDS011;63511;49.346;8.798;2022-12-18T09:23:41;82.72;;;32.15;;
61383;SDS011;63511;49.346;8.798;2022-12-18T09:26:06;77.97;;;30.15;;
61383;SDS011;63511;49.346;8.798;2022-12-18T09:31:06;83.43;;;30.67;;
61383;SDS011;63511;49.346;8.798;2022-12-18T09:36:01;79.15;;;29.83;;
61383;SDS011;63511;49.346;8.798;2022-12-18T09:38:28;87.47;;;29.95;;
61383;SDS011;63511;49.346;8.798;2022-12-18T09:40:57;72.93;;;28.95;;
61383;SDS011;63511;49.346;8.798;2022-12-18T09:43:35;80.35;;;30.73;;
61383;SDS011;63511;49.346;8.798;2022-12-18T09:46:10;80.13;;;30.23;;
61383;SDS011;63511;49.346;8.798;2022-12-18T09:48:47;78.75;;;28.90;;
61383;SDS011;63511;49.346;8.798;2022-12-18T09:51:19;76.72;;;29.58;;
61383;SDS011;63511;49.346;8.798;2022-12-18T09:53:53;75.82;;;29.35;;
61383;SDS011;63511;49.346;8.798;2022-12-18T09:56:28;82.55;;;30.42;;
61383;SDS011;63511;49.346;8.798;2022-12-18T09:58:59;75.90;;;31.80;;
61383;SDS011;63511;49.346;8.798;2022-12-18T10:01:26;82.35;;;32.92;;
61383;SDS011;63511;49.346;8.798;2022-12-18T10:03:55;72.53;;;30.63;;
61383;SDS011;63511;49.346;8.798;2022-12-18T10:11:49;80.55;;;30.85;;
61383;SDS011;63511;49.346;8.798;2022-12-18T10:15:21;91.78;;;30.80;;
61383;SDS011;63511;49.346;8.798;2022-12-18T10:17:37;72.82;;;28.80;;
61383;SDS011;63511;49.346;8.798;2022-12-18T10:25:24;74.75;;;29.83;;
61383;SDS011;63511;49.346;8.798;2022-12-18T10:27:57;70.70;;;28.38;;
61383;SDS011;63511;49.346;8.798;2022-12-18T10:30:27;78.15;;;29.23;;
61383;SDS011;63511;49.346;8.798;2022-12-18T10:32:53;77.45;;;30.58;;
61383;SDS011;63511;49.346;8.798;2022-12-18T10:35:24;73.45;;;30.10;;
61383;SDS011;63511;49.346;8.798;2022-12-18T10:40:30;73.07;;;29.85;;
61383;SDS011;63511;49.346;8.798;2022-12-18T10:43:05;77.75;;;29.88;;
61383;SDS011;63511;49.346;8.798;2022-12-18T10:45:40;78.20;;;28.67;;
61383;SDS011;63511;49.346;8.798;2022-12-18T10:48:19;85.30;;;32.42;;
61383;SDS011;63511;49.346;8.798;2022-12-18T10:50:47;84.57;;;30.67;;
61383;SDS011;63511;49.346;8.798;2022-12-18T10:53:18;73.35;;;29.73;;
61383;SDS011;63511;49.346;8.798;2022-12-18T10:55:46;72.22;;;29.50;;
61383;SDS011;63511;49.346;8.798;2022-12-18T11:03:33;77.22;;;30.55;;
61383;SDS011;63511;49.346;8.798;2022-12-18T11:06:11;80.47;;;28.88;;
61383;SDS011;63511;49.346;8.798;2022-12-18T11:09:02;84.13;;;30.95;;
61383;SDS011;63511;49.346;8.798;2022-12-18T11:11:32;75.07;;;29.90;;
61383;SDS011;63511;49.346;8.798;2022-12-18T11:13:59;83.82;;;32.63;;
61383;SDS011;63511;49.346;8.798;2022-12-18T11:16:26;81.00;;;33.35;;
61383;SDS011;63511;49.346;8.798;2022-12-18T11:18:52;77.38;;;29.73;;
61383;SDS011;63511;49.346;8.798;2022-12-18T11:21:21;76.65;;;30.08;;
61383;SDS011;63511;49.346;8.798;2022-12-18T11:23:50;76.55;;;29.52;;
61383;SDS011;63511;49.346;8.798;2022-12-18T11:26:19;73.75;;;29.85;;
61383;SDS011;63511;49.346;8.798;2022-12-18T11:28:50;82.13;;;31.23;;
61383;SDS011;63511;49.346;8.798;2022-12-18T11:31:19;80.47;;;30.33;;
61383;SDS011;63511;49.346;8.798;2022-12-18T11:33:50;78.10;;;31.38;;
61383;SDS011;63511;49.346;8.798;2022-12-18T11:36:18;81.68;;;28.95;;
61383;SDS011;63511;49.346;8.798;2022-12-18T11:38:45;70.57;;;29.15;;
61383;SDS011;63511;49.346;8.798;2022-12-18T11:41:16;83.63;;;31.75;;
61383;SDS011;63511;49.346;8.798;2022-12-18T11:44:08;90.95;;;33.20;;
61383;SDS011;63511;49.346;8.798;2022-12-18T11:46:45;86.30;;;32.47;;
61383;SDS011;63511;49.346;8.798;2022-12-18T11:51:47;75.50;;;29.17;;
61383;SDS011;63511;49.346;8.798;2022-12-18T11:54:16;74.57;;;29.77;;
61383;SDS011;63511;49.346;8.798;2022-12-18T11:56:46;77.88;;;30.60;;
61383;SDS011;63511;49.346;8.798;2022-12-18T12:10:27;77.22;;;29.95;;
61383;SDS011;63511;49.346;8.798;2022-12-18T12:23:58;87.78;;;33.08;;
61383;SDS011;63511;49.346;8.798;2022-12-18T12:26:36;74.95;;;32.28;;
61383;SDS011;63511;49.346;8.798;2022-12-18T12:29:20;82.78;;;31.08;;
61383;SDS011;63511;49.346;8.798;2022-12-18T12:34:55;77.03;;;31.30;;
61383;SDS011;63511;49.346;8.798;2022-12-18T12:37:36;84.38;;;29.00;;
61383;SDS011;63511;49.346;8.798;2022-12-18T12:40:15;80.05;;;28.25;;
61383;SDS011;63511;49.346;8.798;2022-12-18T12:42:47;79.05;;;31.48;;
61383;SDS011;63511;49.346;8.798;2022-12-18T12:45:57;84.80;;;32.40;;
61383;SDS011;63511;49.346;8.798;2022-12-18T12:48:41;76.88;;;29.42;;
61383;SDS011;63511;49.346;8.798;2022-12-18T12:51:18;76.05;;;30.98;;
61383;SDS011;63511;49.346;8.798;2022-12-18T12:53:46;75.40;;;30.15;;
61383;SDS011;63511;49.346;8.798;2022-12-18T12:56:12;83.25;;;33.08;;
61383;SDS011;63511;49.346;8.798;2022-12-18T12:58:43;78.10;;;31.10;;
61383;SDS011;63511;49.346;8.798;2022-12-18T13:04:14;75.75;;;28.27;;
61383;SDS011;63511;49.346;8.798;2022-12-18T13:09:24;80.25;;;29.27;;
61383;SDS011;63511;49.346;8.798;2022-12-18T13:11:51;76.05;;;26.92;;
61383;SDS011;63511;49.346;8.798;2022-12-18T13:14:44;71.97;;;28.63;;
61383;SDS011;63511;49.346;8.798;2022-12-18T13:19:45;76.60;;;29.33;;
61383;SDS011;63511;49.346;8.798;2022-12-18T13:22:28;77.18;;;30.17;;
61383;SDS011;63511;49.346;8.798;2022-12-18T13:45:49;75.10;;;28.45;;
61383;SDS011;63511;49.346;8.798;2022-12-18T13:48:24;63.38;;;25.67;;
61383;SDS011;63511;49.346;8.798;2022-12-18T13:51:02;72.35;;;28.85;;
61383;SDS011;63511;49.346;8.798;2022-12-18T13:53:31;78.45;;;27.77;;
61383;SDS011;63511;49.346;8.798;2022-12-18T13:56:01;80.70;;;30.23;;
61383;SDS011;63511;49.346;8.798;2022-12-18T13:58:27;71.57;;;28.45;;
61383;SDS011;63511;49.346;8.798;2022-12-18T14:00:52;71.72;;;25.13;;
61383;SDS011;63511;49.346;8.798;2022-12-18T14:03:29;83.80;;;31.88;;
61383;SDS011;63511;49.346;8.798;2022-12-18T14:06:06;66.15;;;25.83;;
61383;SDS011;63511;49.346;8.798;2022-12-18T14:08:38;83.15;;;31.02;;
61383;SDS011;63511;49.346;8.798;2022-12-18T14:11:05;70.38;;;29.77;;
61383;SDS011;63511;49.346;8.798;2022-12-18T14:13:36;67.97;;;29.20;;
61383;SDS011;63511;49.346;8.798;2022-12-18T14:16:05;56.28;;;21.95;;
61383;SDS011;63511;49.346;8.798;2022-12-18T14:18:51;75.72;;;28.33;;
61383;SDS011;63511;49.346;8.798;2022-12-18T14:21:28;71.10;;;27.55;;
61383;SDS011;63511;49.346;8.798;2022-12-18T14:24:13;76.45;;;28.35;;
61383;SDS011;63511;49.346;8.798;2022-12-18T14:26:41;71.15;;;27.70;;
61383;SDS011;63511;49.346;8.798;2022-12-18T14:31:46;65.15;;;25.63;;
61383;SDS011;63511;49.346;8.798;2022-12-18T14:34:34;72.82;;;26.60;;
61383;SDS011;63511;49.346;8.798;2022-12-18T14:37:00;75.53;;;29.58;;
61383;SDS011;63511;49.346;8.798;2022-12-18T14:39:25;71.95;;;26.85;;
61383;SDS011;63511;49.346;8.798;2022-12-18T14:41:51;77.38;;;28.17;;
61383;SDS011;63511;49.346;8.798;2022-12-18T14:44:17;68.28;;;25.92;;
61383;SDS011;63511;49.346;8.798;2022-12-18T14:46:45;72.72;;;28.30;;
61383;SDS011;63511;49.346;8.798;2022-12-18T14:49:30;67.80;;;28.23;;
61383;SDS011;63511;49.346;8.798;2022-12-18T14:51:58;71.75;;;26.65;;
61383;SDS011;63511;49.346;8.798;2022-12-18T14:54:30;67.32;;;27.98;;
61383;SDS011;63511;49.346;8.798;2022-12-18T14:57:14;73.82;;;29.27;;
61383;SDS011;63511;49.346;8.798;2022-12-18T14:59:47;75.47;;;29.15;;
61383;SDS011;63511;49.346;8.798;2022-12-18T15:02:27;70.90;;;28.23;;
61383;SDS011;63511;49.346;8.798;2022-12-18T15:07:42;68.70;;;26.70;;
61383;SDS011;63511;49.346;8.798;2022-12-18T15:10:16;75.28;;;27.77;;
61383;SDS011;63511;49.346;8.798;2022-12-18T15:13:25;68.38;;;25.98;;
61383;SDS011;63511;49.346;8.798;2022-12-18T15:18:01;81.18;;;29.55;;
61383;SDS011;63511;49.346;8.798;2022-12-18T15:25:48;67.03;;;28.00;;
61383;SDS011;63511;49.346;8.798;2022-12-18T15:33:45;80.07;;;30.48;;
61383;SDS011;63511;49.346;8.798;2022-12-18T15:36:25;72.93;;;28.98;;
61383;SDS011;63511;49.346;8.798;2022-12-18T15:38:55;68.40;;;27.40;;
61383;SDS011;63511;49.346;8.798;2022-12-18T15:41:22;69.70;;;27.38;;
61383;SDS011;63511;49.346;8.798;2022-12-18T15:43:52;71.18;;;27.98;;
61383;SDS011;63511;49.346;8.798;2022-12-18T15:46:19;66.40;;;27.08;;
61383;SDS011;63511;49.346;8.798;2022-12-18T15:48:47;72.47;;;26.38;;
61383;SDS011;63511;49.346;8.798;2022-12-18T15:53:41;76.22;;;26.35;;
61383;SDS011;63511;49.346;8.798;2022-12-18T15:56:11;71.65;;;26.55;;
61383;SDS011;63511;49.346;8.798;2022-12-18T15:58:55;69.25;;;27.27;;
61383;SDS011;63511;49.346;8.798;2022-12-18T16:01:21;69.00;;;26.17;;
61383;SDS011;63511;49.346;8.798;2022-12-18T16:03:49;66.95;;;27.08;;
61383;SDS011;63511;49.346;8.798;2022-12-18T16:06:16;64.50;;;26.33;;
61383;SDS011;63511;49.346;8.798;2022-12-18T16:08:42;69.30;;;27.20;;
61383;SDS011;63511;49.346;8.798;2022-12-18T16:11:20;76.75;;;29.23;;
61383;SDS011;63511;49.346;8.798;2022-12-18T16:14:02;58.55;;;24.27;;
61383;SDS011;63511;49.346;8.798;2022-12-18T16:16:36;72.50;;;28.38;;
61383;SDS011;63511;49.346;8.798;2022-12-18T16:19:04;79.57;;;28.52;;
61383;SDS011;63511;49.346;8.798;2022-12-18T16:21:29;68.47;;;28.45;;
61383;SDS011;63511;49.346;8.798;2022-12-18T16:23:55;68.63;;;27.00;;
61383;SDS011;63511;49.346;8.798;2022-12-18T16:26:20;70.38;;;27.52;;
61383;SDS011;63511;49.346;8.798;2022-12-18T16:28:45;71.40;;;27.25;;
61383;SDS011;63511;49.346;8.798;2022-12-18T16:31:13;75.72;;;29.55;;
61383;SDS011;63511;49.346;8.798;2022-12-18T16:33:39;67.72;;;26.00;;
61383;SDS011;63511;49.346;8.798;2022-12-18T16:36:04;67.53;;;27.25;;
61383;SDS011;63511;49.346;8.798;2022-12-18T16:38:29;66.00;;;26.70;;
61383;SDS011;63511;49.346;8.798;2022-12-18T16:40:57;64.10;;;26.30;;
61383;SDS011;63511;49.346;8.798;2022-12-18T16:43:41;66.40;;;25.85;;
61383;SDS011;63511;49.346;8.798;2022-12-18T16:46:07;72.38;;;26.73;;
61383;SDS011;63511;49.346;8.798;2022-12-18T16:48:32;72.25;;;27.90;;
61383;SDS011;63511;49.346;8.798;2022-12-18T16:51:01;79.22;;;27.80;;
61383;SDS011;63511;49.346;8.798;2022-12-18T16:53:31;70.80;;;28.48;;
61383;SDS011;63511;49.346;8.798;2022-12-18T16:55:57;73.68;;;28.65;;
61383;SDS011;63511;49.346;8.798;2022-12-18T16:58:22;68.40;;;28.02;;
61383;SDS011;63511;49.346;8.798;2022-12-18T17:00:48;76.57;;;27.50;;
61383;SDS011;63511;49.346;8.798;2022-12-18T17:03:13;71.63;;;27.35;;
61383;SDS011;63511;49.346;8.798;2022-12-18T17:05:38;72.40;;;27.58;;